Time;durP1;ratioP1;P1;durP2;ratioP2;P2;SDS_P1;SDS_P2;PMS_P1;PMS_P2;Temp;Humidity;BMP_temperature;BMP_pressure;BME280_temperature;BME280_humidity;BME280_pressure;Samples;Min_cycle;Max_cycle;Signal;HPM_P1;HPM_P2
2022/05/10 00:00:33;;;;;;;4.87;3.80;;;;;;;7.45;82.72;96294.36;1724908;83;21083;-71
2022/05/10 00:03:05;;;;;;;4.10;2.30;;;;;;;7.42;82.26;96282.09;1723123;83;21035;-72
2022/05/10 00:05:38;;;;;;;4.23;2.23;;;;;;;7.40;82.09;96279.02;1745788;82;21028;-72
2022/05/10 00:08:10;;;;;;;3.20;2.10;;;;;;;7.45;82.51;96279.48;1745504;82;21015;-72
2022/05/10 00:10:38;;;;;;;2.80;2.27;;;;;;;7.37;81.86;96275.95;1745957;82;21016;-72
2022/05/10 00:13:06;;;;;;;3.20;2.20;;;;;;;7.41;82.33;96279.05;1751327;82;21457;-72
2022/05/10 00:15:34;;;;;;;3.70;2.33;;;;;;;7.46;82.46;96272.47;1732087;82;21094;-73
2022/05/10 00:18:01;;;;;;;2.87;2.23;;;;;;;7.53;82.54;96275.57;1754328;82;21561;-72
2022/05/10 00:20:28;;;;;;;8.57;2.60;;;;;;;7.53;82.01;96275.16;1754236;82;20988;-72
2022/05/10 00:22:55;;;;;;;4.50;2.40;;;;;;;7.51;82.14;96274.27;1754133;82;21066;-72
2022/05/10 00:25:27;;;;;;;2.93;2.20;;;;;;;7.51;81.60;96272.05;1754292;82;21019;-72
2022/05/10 00:27:54;;;;;;;3.93;2.30;;;;;;;7.46;82.01;96267.22;1754329;82;21035;-72
2022/05/10 00:30:22;;;;;;;2.30;2.10;;;;;;;7.40;81.61;96268.08;1732291;82;21497;-72
2022/05/10 00:32:50;;;;;;;2.20;2.00;;;;;;;7.39;81.88;96268.97;1754290;82;21519;-72
2022/05/10 00:35:22;;;;;;;2.23;1.93;;;;;;;7.46;82.20;96264.59;1754175;82;20991;-72
2022/05/10 00:37:51;;;;;;;3.27;2.07;;;;;;;7.43;81.51;96261.97;1754265;82;21027;-72
2022/05/10 00:40:22;;;;;;;5.83;2.20;;;;;;;7.44;81.69;96265.92;1732281;82;21022;-72
2022/05/10 00:43:06;;;;;;;2.40;2.10;;;;;;;7.52;81.92;96260.70;1730758;83;21465;-72
2022/05/10 00:45:39;;;;;;;4.00;2.37;;;;;;;7.47;81.32;96258.05;1754216;82;21544;-72
2022/05/10 00:48:23;;;;;;;3.83;2.30;;;;;;;7.45;81.50;96250.59;1754206;81;21062;-73
2022/05/10 00:50:55;;;;;;;3.13;2.83;;;;;;;7.44;81.18;96250.61;1754213;81;20990;-72
2022/05/10 00:53:29;;;;;;;2.90;2.57;;;;;;;7.27;80.94;96236.96;1754352;82;21086;-73
2022/05/10 00:56:06;;;;;;;3.27;2.83;;;;;;;7.29;81.61;96241.78;1732368;82;21019;-73
2022/05/10 00:58:48;;;;;;;2.87;2.57;;;;;;;7.27;81.07;96236.96;1754143;82;21022;-72
2022/05/10 01:01:20;;;;;;;5.17;2.77;;;;;;;7.26;80.96;96233.91;1753485;82;21046;-73
2022/05/10 01:03:53;;;;;;;5.63;2.57;;;;;;;7.15;80.60;96231.65;1732390;83;21014;-72
2022/05/10 01:06:28;;;;;;;;;;;;;;;7.05;81.39;96230.72;1755415;82;21062;-73
2022/05/10 01:09:06;;;;;;;4.80;3.00;;;;;;;6.94;82.05;96229.80;1754112;82;20194;-73
2022/05/10 01:12:02;;;;;;;2.83;2.57;;;;;;;6.83;82.75;96243.27;1713988;83;21007;-73
2022/05/10 01:15:13;;;;;;;2.63;2.43;;;;;;;6.73;82.53;96238.42;1754267;82;21059;-73
2022/05/10 01:17:40;;;;;;;4.33;2.37;;;;;;;6.63;81.94;96234.86;1724801;82;21010;-73
2022/05/10 01:20:09;;;;;;;3.60;2.20;;;;;;;6.63;82.02;96233.98;1732435;83;20995;-73
2022/05/10 01:23:12;;;;;;;2.93;2.20;;;;;;;6.60;81.93;96237.88;1754153;82;21026;-74
2022/05/10 01:25:59;;;;;;;2.97;2.37;;;;;;;6.49;81.83;96233.43;1752279;82;21086;-74
2022/05/10 01:28:33;;;;;;;3.90;2.47;;;;;;;6.40;81.71;96240.34;1753492;82;21025;-74
2022/05/10 01:31:06;;;;;;;2.87;2.57;;;;;;;6.38;82.10;96239.03;1721933;82;21027;-74
2022/05/10 01:33:47;;;;;;;4.27;2.47;;;;;;;6.41;82.83;96236.88;1732262;82;21513;-74
2022/05/10 01:36:39;;;;;;;5.15;2.95;;;;;;;6.36;83.39;96243.38;1754503;82;21446;-74
2022/05/10 01:39:25;;;;;;;2.87;2.50;;;;;;;6.37;83.67;96241.63;1753988;82;21007;-73
2022/05/10 01:42:12;;;;;;;2.37;2.17;;;;;;;6.31;82.80;96242.47;1732147;82;21560;-74
2022/05/10 01:44:59;;;;;;;4.80;2.20;;;;;;;6.36;83.17;96240.77;1754215;82;20991;-73
2022/05/10 01:47:37;;;;;;;3.87;2.00;;;;;;;6.44;83.29;96234.27;1753031;82;21062;-73
2022/05/10 01:50:17;;;;;;;6.40;1.87;;;;;;;6.50;83.07;96223.81;1732382;83;20987;-73
2022/05/10 01:53:13;;;;;;;3.70;2.00;;;;;;;6.49;82.98;96228.19;1754259;82;21064;-73
2022/05/10 01:55:51;;;;;;;17.20;3.30;;;;;;;6.50;83.28;96229.06;1732191;82;21019;-74
2022/05/10 01:58:26;;;;;;;2.17;1.77;;;;;;;6.50;83.27;96232.98;1754225;82;20988;-74
2022/05/10 02:01:00;;;;;;;3.37;2.30;;;;;;;6.45;82.96;96231.67;1754253;82;21011;-74
2022/05/10 02:03:44;;;;;;;2.90;2.00;;;;;;;6.52;83.23;96229.95;1753936;82;21039;-74
2022/05/10 02:06:20;;;;;;;;;;;;;;;6.59;83.21;96233.06;1734932;83;21034;-74
2022/05/10 02:09:13;;;;;;;2.20;1.70;;;;;;;6.61;82.69;96230.03;1754178;82;20091;-74
2022/05/10 02:11:50;;;;;;;9.40;2.20;;;;;;;6.56;82.41;96226.50;1732570;82;21015;-74
2022/05/10 02:14:31;;;;;;;2.00;1.73;;;;;;;6.55;82.40;96234.34;1751181;82;20996;-74
2022/05/10 02:17:18;;;;;;;4.13;1.90;;;;;;;6.57;82.49;96226.06;1749217;82;21087;-74
2022/05/10 02:19:56;;;;;;;3.27;1.60;;;;;;;6.50;82.16;96227.75;1729773;83;21022;-74
2022/05/10 02:22:49;;;;;;;5.00;1.83;;;;;;;6.38;81.75;96227.24;1745737;82;21059;-74
2022/05/10 02:25:21;;;;;;;4.17;2.17;;;;;;;6.38;82.41;96227.24;1729584;82;21576;-73
2022/05/10 02:27:56;;;;;;;2.10;1.80;;;;;;;6.47;82.96;96222.48;1745837;82;21071;-73
2022/05/10 02:30:27;;;;;;;2.20;1.83;;;;;;;6.57;83.02;96228.68;1728705;83;21023;-73
2022/05/10 02:33:07;;;;;;;1.70;1.60;;;;;;;6.59;82.46;96230.88;1745378;82;21066;-73
2022/05/10 02:35:56;;;;;;;3.80;1.90;;;;;;;6.63;82.52;96226.12;1729729;83;21050;-74
2022/05/10 02:38:30;;;;;;;2.90;2.03;;;;;;;6.59;81.77;96222.58;1745920;82;21497;-74
2022/05/10 02:41:01;;;;;;;1.67;1.57;;;;;;;6.58;81.89;96222.15;1729268;83;21005;-74
2022/05/10 02:43:33;;;;;;;4.43;2.57;;;;;;;6.50;81.29;96218.16;1745870;82;21062;-74
2022/05/10 02:46:00;;;;;;;3.53;2.13;;;;;;;6.38;81.46;96211.95;1729554;83;21002;-74
2022/05/10 02:48:32;;;;;;;2.47;2.20;;;;;;;6.39;81.92;96221.56;1745946;82;21532;-74
2022/05/10 02:50:59;;;;;;;2.50;2.30;;;;;;;6.38;81.83;96220.69;1729676;83;21013;-74
2022/05/10 02:53:27;;;;;;;5.17;2.27;;;;;;;6.37;81.89;96224.16;1746100;82;20995;-74
2022/05/10 02:56:07;;;;;;;2.70;2.50;;;;;;;6.36;81.75;96222.41;1729669;83;20990;-74
2022/05/10 02:59:02;;;;;;;2.23;2.03;;;;;;;6.32;81.40;96224.99;1745942;82;21028;-74
2022/05/10 03:01:54;;;;;;;2.40;2.20;;;;;;;6.22;80.91;96220.11;1729681;83;21045;-74
2022/05/10 03:04:23;;;;;;;3.23;2.10;;;;;;;6.15;80.98;96220.51;1745900;82;21031;-73
2022/05/10 03:06:50;;;;;;;2.30;2.00;;;;;;;6.05;80.86;96227.84;1729869;83;21057;-74
2022/05/10 03:09:17;;;;;;;2.60;1.80;;;;;;;5.90;80.75;96228.54;1745905;82;21486;-74
2022/05/10 03:11:44;;;;;;;4.30;2.57;;;;;;;5.77;81.30;96232.78;1729346;83;21555;-73
2022/05/10 03:14:12;;;;;;;5.23;2.20;;;;;;;5.69;82.16;96237.47;1745952;82;21039;-74
2022/05/10 03:16:40;;;;;;;7.60;3.53;;;;;;;5.70;82.12;96230.95;1729822;83;20979;-74
2022/05/10 03:19:07;;;;;;;2.83;2.37;;;;;;;5.77;82.39;96224.92;1745508;82;21035;-74
2022/05/10 03:21:39;;;;;;;2.83;2.03;;;;;;;5.84;82.50;96230.64;1729903;82;21029;-74
2022/05/10 03:24:07;;;;;;;2.10;1.90;;;;;;;5.89;82.30;96222.83;1746037;82;21111;-74
2022/05/10 03:26:34;;;;;;;2.10;1.80;;;;;;;5.92;82.73;96227.22;1729659;83;21017;-74
2022/05/10 03:29:01;;;;;;;3.10;1.60;;;;;;;5.86;82.43;96226.73;1745995;82;21560;-74
2022/05/10 03:31:29;;;;;;;1.87;1.57;;;;;;;5.86;82.88;96224.12;1729590;83;21049;-74
2022/05/10 03:36:42;;;;;;;2.00;1.77;;;;;;;5.96;83.56;96226.00;1729945;83;21508;-74
2022/05/10 03:39:10;;;;;;;4.60;2.03;;;;;;;6.14;83.76;96226.59;1746111;82;21526;-74
2022/05/10 03:41:37;;;;;;;4.43;2.00;;;;;;;6.31;83.67;96232.42;1729450;83;21544;-73
2022/05/10 03:44:05;;;;;;;2.50;2.00;;;;;;;6.40;83.54;96228.55;1746110;82;21486;-74
2022/05/10 03:46:31;;;;;;;4.73;2.27;;;;;;;6.39;82.85;96228.98;1729380;83;21045;-73
2022/05/10 03:48:58;;;;;;;3.33;2.23;;;;;;;6.34;83.86;96229.38;1746026;82;21047;-74
2022/05/10 03:51:25;;;;;;;3.60;2.23;;;;;;;6.37;84.11;96229.84;1729694;83;21017;-74
2022/05/10 03:53:52;;;;;;;1.90;1.70;;;;;;;6.36;83.96;96227.66;1746150;82;21020;-73
2022/05/10 03:56:18;;;;;;;2.43;1.47;;;;;;;6.49;84.46;96230.81;1730097;83;21006;-75
2022/05/10 03:58:45;;;;;;;2.60;1.77;;;;;;;6.63;84.64;96227.43;1745902;82;21023;-74
2022/05/10 04:01:11;;;;;;;2.90;1.80;;;;;;;6.67;84.21;96225.25;1729969;83;21037;-71
2022/05/10 04:03:38;;;;;;;7.27;2.77;;;;;;;6.73;84.01;96225.31;1746127;82;20971;-71
2022/05/10 04:06:06;;;;;;;7.10;3.30;;;;;;;6.80;84.53;96223.58;1729810;83;21432;-71
2022/05/10 04:08:33;;;;;;;17.20;4.33;;;;;;;6.93;84.72;96220.19;1746030;82;21063;-71
2022/05/10 04:11:10;;;;;;;6.00;3.50;;;;;;;7.09;84.52;96232.95;1729809;83;20993;-71
2022/05/10 04:13:39;;;;;;;6.20;3.43;;;;;;;7.29;84.83;96225.17;1745925;82;21026;-71
2022/05/10 04:16:07;;;;;;;5.53;4.17;;;;;;;7.38;83.72;96229.13;1729914;83;21021;-72
2022/05/10 04:18:34;;;;;;;19.40;7.67;;;;;;;7.52;84.12;96228.75;1746116;82;21472;-71
2022/05/10 04:21:01;;;;;;;10.20;6.73;;;;;;;7.60;83.60;96218.27;1729817;83;21022;-71
2022/05/10 04:23:27;;;;;;;5.60;4.73;;;;;;;7.68;83.72;96216.53;1746258;82;20987;-71
2022/05/10 04:25:54;;;;;;;9.87;5.40;;;;;;;7.77;83.66;96224.45;1729596;83;20994;-70
2022/05/10 04:28:21;;;;;;;7.60;4.27;;;;;;;7.86;83.71;96226.23;1746020;82;21528;-71
2022/05/10 04:30:47;;;;;;;5.90;5.00;;;;;;;7.96;83.57;96225.78;1729705;83;20982;-71
2022/05/10 04:33:14;;;;;;;39.20;30.10;;;;;;;8.07;83.62;96219.25;1746149;82;21027;-70
2022/05/10 04:35:41;;;;;;;45.43;37.07;;;;;;;8.19;83.55;96216.64;1729460;83;21034;-71
2022/05/10 04:38:08;;;;;;;42.77;38.17;;;;;;;8.35;83.54;96228.03;1746141;82;20980;-71
2022/05/10 04:43:21;;;;;;;111.43;87.77;;;;;;;8.54;82.86;96223.66;1746035;82;21006;-71
2022/05/10 04:45:50;;;;;;;31.43;28.20;;;;;;;8.66;82.80;96227.60;1729878;83;21022;-71
2022/05/10 04:48:16;;;;;;;8.03;6.73;;;;;;;8.77;82.55;96222.31;1746054;82;21528;-71
2022/05/10 04:50:43;;;;;;;5.23;3.97;;;;;;;8.88;82.18;96222.75;1729958;83;21005;-71
2022/05/10 04:53:09;;;;;;;3.60;3.20;;;;;;;9.00;82.01;96227.12;1746116;82;20964;-71
2022/05/10 04:55:36;;;;;;;5.70;5.10;;;;;;;9.13;81.91;96222.70;1729060;83;21077;-71
2022/05/10 04:58:03;;;;;;;5.63;5.13;;;;;;;9.24;81.84;96226.16;1744695;82;21148;-68
2022/05/10 05:00:30;;;;;;;3.60;3.23;;;;;;;9.38;82.01;96224.81;1728385;83;21044;-68
2022/05/10 05:02:57;;;;;;;6.07;3.83;;;;;;;9.51;81.65;96228.27;1743404;82;21085;-69
2022/05/10 05:05:24;;;;;;;4.70;3.30;;;;;;;9.65;81.38;96219.87;1728383;83;21633;-71
2022/05/10 05:07:51;;;;;;;4.60;3.97;;;;;;;9.82;81.29;96220.20;1744073;82;21698;-70
2022/05/10 05:10:18;;;;;;;4.23;3.57;;;;;;;9.97;81.05;96216.16;1728558;83;21009;-74
2022/05/10 05:12:45;;;;;;;10.53;6.45;;;;;;;10.11;80.71;96215.63;1744731;82;21109;-69
2022/05/10 05:15:12;;;;;;;5.30;4.53;;;;;;;10.23;80.87;96205.87;1738481;82;21109;-74
2022/05/10 05:17:39;;;;;;;6.12;5.12;;;;;;;10.38;80.33;96216.33;1770844;81;21057;-68
2022/05/10 05:20:07;;;;;;;4.22;3.60;;;;;;;10.54;80.39;96211.83;1740404;82;21014;-67
2022/05/10 05:22:34;;;;;;;4.62;4.00;;;;;;;10.71;80.14;96211.66;1770056;81;21021;-71
2022/05/10 05:25:02;;;;;;;4.00;3.52;;;;;;;10.85;79.64;96204.94;1739526;82;22287;-69
2022/05/10 05:27:28;;;;;;;3.55;3.10;;;;;;;10.98;78.64;96203.92;1769981;81;21019;-71
2022/05/10 05:29:55;;;;;;;4.90;3.37;;;;;;;11.14;78.93;96202.88;1740107;82;21495;-71
2022/05/10 05:32:27;;;;;;;5.55;3.40;;;;;;;11.35;78.69;96193.82;1738483;82;21081;-71
2022/05/10 05:34:56;;;;;;;4.22;3.05;;;;;;;11.56;78.74;96195.77;1770863;81;20966;-72
2022/05/10 05:37:35;;;;;;;4.30;3.83;;;;;;;11.79;78.18;96189.75;1740403;82;21022;-71
2022/05/10 05:40:09;;;;;;;3.87;3.55;;;;;;;12.03;78.44;96195.61;1770879;81;21511;-71
2022/05/10 05:42:36;;;;;;;6.33;4.40;;;;;;;12.29;75.76;96188.58;1740427;82;21019;-72
2022/05/10 05:45:06;;;;;;;9.00;6.30;;;;;;;12.51;76.83;96187.34;1770445;81;21022;-71
2022/05/10 05:47:33;;;;;;;10.13;3.72;;;;;;;12.75;77.06;96183.84;1739965;82;21119;-74
2022/05/10 05:50:06;;;;;;;9.93;3.37;;;;;;;12.92;75.13;96185.73;1769267;81;21164;-73
2022/05/10 05:52:32;;;;;;;4.87;4.28;;;;;;;13.12;74.93;96175.23;1739834;82;21097;-76
2022/05/10 05:54:59;;;;;;;5.47;4.70;;;;;;;13.20;72.78;96181.24;1770072;81;21117;-75
2022/05/10 05:57:26;;;;;;;5.60;3.60;;;;;;;13.28;72.45;96175.83;1739501;82;21093;-75
2022/05/10 05:59:56;;;;;;;6.47;4.22;;;;;;;13.40;73.26;96173.80;1769759;81;21062;-74
2022/05/10 06:02:24;;;;;;;4.08;3.58;;;;;;;13.54;73.29;96176.18;1739748;82;21042;-75
2022/05/10 06:04:52;;;;;;;3.58;3.17;;;;;;;13.65;72.74;96173.30;1770759;81;21519;-73
2022/05/10 06:07:20;;;;;;;3.62;3.33;;;;;;;13.79;73.28;96171.23;1740070;82;21118;-72
2022/05/10 06:09:48;;;;;;;7.00;3.12;;;;;;;13.93;72.25;96166.06;1769688;81;21512;-68
2022/05/10 06:12:19;;;;;;;4.40;3.02;;;;;;;14.01;72.46;96172.05;1748329;81;21084;-72
2022/05/10 06:14:46;;;;;;;3.60;3.30;;;;;;;14.07;70.25;96170.14;1771806;80;20979;-71
2022/05/10 06:17:15;;;;;;;5.30;3.72;;;;;;;14.13;70.54;96169.13;1745399;82;21501;-70
2022/05/10 06:19:43;;;;;;;4.45;3.98;;;;;;;14.27;71.30;96177.64;1754784;82;21006;-70
2022/05/10 06:22:13;;;;;;;5.55;3.62;;;;;;;14.44;71.49;96173.73;1778454;81;21536;-71
2022/05/10 06:24:41;;;;;;;6.60;6.00;;;;;;;14.68;71.63;96174.45;1745969;82;21007;-70
2022/05/10 06:27:12;;;;;;;5.67;2.62;;;;;;;14.77;69.98;96173.83;1754474;82;21618;-71
2022/05/10 06:29:39;;;;;;;4.97;2.72;;;;;;;14.91;68.57;96169.86;1779713;81;21014;-70
2022/05/10 06:32:08;;;;;;;4.15;2.90;;;;;;;15.04;68.33;96169.55;1779944;81;21003;-72
2022/05/10 06:34:34;;;;;;;3.20;2.90;;;;;;;15.15;67.22;96161.70;1746172;82;20989;-69
2022/05/10 06:37:01;;;;;;;2.90;2.65;;;;;;;15.25;67.93;96162.33;1755241;82;21078;-69
2022/05/10 06:39:27;;;;;;;4.65;2.80;;;;;;;15.36;67.26;96159.36;1777101;81;21544;-71
2022/05/10 06:41:53;;;;;;;3.98;2.98;;;;;;;15.35;66.36;96155.84;1778559;81;21052;-73
2022/05/10 06:44:20;;;;;;;4.62;3.20;;;;;;;15.46;66.72;96146.67;1744634;82;21005;-72
2022/05/10 06:46:47;;;;;;;3.30;3.00;;;;;;;15.46;66.72;96146.67;1754796;82;21357;-75
2022/05/10 06:49:14;;;;;;;6.05;2.98;;;;;;;15.56;67.57;96160.12;1779575;80;21097;-71
2022/05/10 06:51:41;;;;;;;7.33;2.67;;;;;;;15.75;68.09;96155.17;1779588;81;21065;-75
2022/05/10 06:54:10;;;;;;;2.70;2.50;;;;;;;15.79;64.02;96154.14;1779449;81;21082;-71
2022/05/10 06:56:37;;;;;;;3.58;2.83;;;;;;;15.87;64.95;96151.25;1780815;79;21059;-72
2022/05/10 06:59:03;;;;;;;2.98;2.67;;;;;;;15.86;64.14;96153.05;1822185;79;21424;-75
2022/05/10 07:01:30;;;;;;;5.87;3.47;;;;;;;16.00;66.17;96153.94;1799290;78;21176;-66
2022/05/10 07:03:59;;;;;;;3.40;3.10;;;;;;;16.12;66.27;96153.56;1800774;79;21658;-66
2022/05/10 07:06:27;;;;;;;4.87;2.85;;;;;;;16.27;66.58;96154.87;1766456;80;20971;-66
2022/05/10 07:08:53;;;;;;;3.52;2.90;;;;;;;16.34;66.01;96163.08;1742133;82;21039;-66
2022/05/10 07:11:20;;;;;;;3.20;2.90;;;;;;;16.43;65.80;96159.27;1762641;81;21730;-66
2022/05/10 07:13:48;;;;;;;6.92;2.90;;;;;;;16.43;64.69;96163.26;1761149;81;21594;-65
2022/05/10 07:16:14;;;;;;;4.90;2.67;;;;;;;16.38;64.14;96169.20;1749619;81;21583;-65
2022/05/10 07:18:41;;;;;;;4.92;2.45;;;;;;;16.28;64.17;96173.94;1750307;81;21053;-65
2022/05/10 07:21:07;;;;;;;5.08;2.95;;;;;;;16.30;65.09;96171.20;1742533;80;21479;-65
2022/05/10 07:23:34;;;;;;;2.52;2.33;;;;;;;16.31;65.95;96173.83;1766284;81;20984;-68
2022/05/10 07:26:01;;;;;;;3.72;3.02;;;;;;;16.38;64.81;96178.52;1752452;81;21006;-68
2022/05/10 07:28:29;;;;;;;3.27;2.80;;;;;;;16.39;64.28;96178.45;1757995;81;21518;-68
2022/05/10 07:31:00;;;;;;;2.90;2.67;;;;;;;16.52;64.36;96178.92;1768691;80;21047;-69
2022/05/10 07:33:29;;;;;;;3.85;2.72;;;;;;;16.61;63.79;96177.77;1769309;81;21008;-67
2022/05/10 07:38:43;;;;;;;3.37;2.85;;;;;;;16.90;63.89;96171.94;1769314;81;21039;-69
2022/05/10 07:41:11;;;;;;;3.10;2.80;;;;;;;16.93;61.02;96170.02;1769467;81;20981;-71
2022/05/10 07:43:39;;;;;;;4.42;2.42;;;;;;;16.96;61.07;96170.38;1768030;81;21083;-71
2022/05/10 07:46:07;;;;;;;4.40;2.45;;;;;;;16.96;61.00;96175.71;1768927;81;21016;-66
2022/05/10 07:48:34;;;;;;;5.25;2.80;;;;;;;16.92;60.67;96171.43;1769297;81;21016;-65
2022/05/10 07:51:02;;;;;;;2.90;2.60;;;;;;;16.98;61.61;96172.54;1769100;81;21479;-69
2022/05/10 07:53:31;;;;;;;5.60;2.70;;;;;;;17.02;61.28;96167.52;1769173;81;21008;-67
2022/05/10 07:56:00;;;;;;;5.22;2.45;;;;;;;17.22;60.66;96164.16;1769348;81;21050;-67
2022/05/10 07:58:26;;;;;;;2.87;2.62;;;;;;;17.33;61.67;96165.95;1768904;81;21069;-66
2022/05/10 08:00:53;;;;;;;4.15;2.40;;;;;;;17.49;61.10;96162.30;1766381;81;21353;-68
2022/05/10 08:03:24;;;;;;;3.17;2.02;;;;;;;17.62;60.70;96166.24;1749717;81;21087;-66
2022/05/10 08:05:54;;;;;;;3.30;2.70;;;;;;;17.49;59.72;96160.49;1748356;82;21097;-69
2022/05/10 08:08:25;;;;;;;5.50;2.30;;;;;;;17.56;59.49;96165.12;1748404;82;21101;-67
2022/05/10 08:10:53;;;;;;;2.62;2.20;;;;;;;17.72;59.55;96163.63;1748552;82;20998;-69
2022/05/10 08:13:26;;;;;;;2.75;2.45;;;;;;;17.84;59.95;96162.78;1749005;82;21088;-68
2022/05/10 08:15:57;;;;;;;3.08;2.42;;;;;;;17.86;58.91;96158.26;1759268;81;21487;-67
2022/05/10 08:18:25;;;;;;;3.08;2.42;;;;;;;17.86;59.14;96162.27;1747586;82;21051;-67
2022/05/10 08:20:55;;;;;;;2.87;2.40;;;;;;;17.94;58.88;96161.50;1747421;82;21042;-67
2022/05/10 08:23:26;;;;;;;3.80;2.50;;;;;;;18.06;59.79;96160.16;1747517;82;21042;-70
2022/05/10 08:25:54;;;;;;;4.35;2.60;;;;;;;18.13;58.19;96160.33;1747520;82;21466;-64
2022/05/10 08:28:25;;;;;;;2.75;2.05;;;;;;;18.10;58.34;96155.98;1747445;82;21061;-67
2022/05/10 08:30:52;;;;;;;2.98;2.55;;;;;;;18.23;59.13;96154.16;1747157;82;21114;-67
2022/05/10 08:33:25;;;;;;;2.80;2.60;;;;;;;18.24;55.91;96147.41;1747072;82;21066;-67
2022/05/10 08:35:55;;;;;;;2.80;2.60;;;;;;;18.28;57.66;96149.51;1747497;82;21493;-66
2022/05/10 08:38:29;;;;;;;3.00;2.70;;;;;;;18.44;58.74;96152.42;1747702;82;20991;-69
2022/05/10 08:41:08;;;;;;;5.40;2.40;;;;;;;18.67;58.64;96149.70;1747479;82;21524;-68
2022/05/10 08:43:40;;;;;;;2.95;2.45;;;;;;;18.86;58.18;96149.80;1758660;82;21034;-70
2022/05/10 08:46:12;;;;;;;3.45;2.50;;;;;;;18.99;57.80;96158.17;1759181;82;21138;-69
2022/05/10 08:48:38;;;;;;;2.70;2.50;;;;;;;19.19;58.54;96146.61;1758702;82;21029;-72
2022/05/10 08:51:07;;;;;;;2.45;2.25;;;;;;;19.39;57.99;96144.40;1758831;81;20979;-65
2022/05/10 08:53:34;;;;;;;3.25;2.67;;;;;;;19.43;55.28;96144.67;1758807;81;21042;-65
2022/05/10 08:56:25;;;;;;;2.67;2.42;;;;;;;19.46;54.46;96143.19;1758933;81;20995;-67
2022/05/10 08:59:23;;;;;;;3.83;2.67;;;;;;;19.57;54.93;96139.55;1718109;82;21006;-70
2022/05/10 09:01:58;;;;;;;4.75;2.15;;;;;;;19.85;55.97;96143.19;1758476;82;21081;-67
2022/05/10 09:04:55;;;;;;;3.15;2.37;;;;;;;20.01;55.84;96142.02;1758369;81;21026;-66
2022/05/10 09:07:30;;;;;;;3.33;2.55;;;;;;;20.24;54.44;96141.41;1758778;82;21094;-67
2022/05/10 09:10:21;;;;;;;2.60;2.37;;;;;;;20.40;53.35;96138.84;1758259;82;21038;-66
2022/05/10 09:12:58;;;;;;;6.40;2.98;;;;;;;20.50;54.56;96137.44;1758532;81;21014;-66
2022/05/10 09:15:31;;;;;;;5.03;2.62;;;;;;;20.75;54.36;96130.42;1755738;82;20995;-67
2022/05/10 09:18:08;;;;;;;5.95;2.83;;;;;;;20.89;54.83;96138.66;1753200;81;21078;-67
2022/05/10 09:20:39;;;;;;;3.45;2.70;;;;;;;20.80;50.98;96133.74;1753061;81;21075;-66
2022/05/10 09:23:30;;;;;;;3.15;2.85;;;;;;;20.62;50.50;96129.31;1753147;81;20991;-66
2022/05/10 09:25:57;;;;;;;2.70;2.50;;;;;;;20.73;53.65;96130.97;1753116;82;21577;-66
2022/05/10 09:28:44;;;;;;;2.95;2.62;;;;;;;20.94;53.45;96124.98;1752920;82;21074;-66
2022/05/10 09:37:25;;;;;;;7.10;2.70;;;;;;;21.36;51.98;96112.97;1752839;81;21086;-67
2022/05/10 09:40:01;;;;;;;2.85;2.65;;;;;;;21.52;52.60;96115.73;1753210;81;21078;-67
2022/05/10 09:42:41;;;;;;;4.35;2.45;;;;;;;21.59;51.35;96106.39;1753527;81;21050;-67
2022/05/10 09:45:23;;;;;;;3.83;2.90;;;;;;;21.77;52.41;96112.13;1753174;81;21501;-67
2022/05/10 09:48:06;;;;;;;2.92;2.47;;;;;;;21.92;51.40;96109.53;1753238;82;21169;-66
2022/05/10 09:50:39;;;;;;;4.28;2.70;;;;;;;22.10;49.62;96102.27;1752317;82;20992;-66
2022/05/10 09:53:31;;;;;;;4.67;2.70;;;;;;;22.35;49.84;96098.63;1753140;82;21027;-66
2022/05/10 09:56:06;;;;;;;5.95;2.52;;;;;;;22.61;46.29;96094.91;1753053;82;21003;-66
2022/05/10 09:58:38;;;;;;;3.40;2.35;;;;;;;22.81;47.69;96087.02;1752725;82;21039;-66
2022/05/10 10:01:11;;;;;;;5.73;2.27;;;;;;;23.03;45.27;96085.27;1752812;82;21074;-66
2022/05/10 10:03:41;;;;;;;4.37;2.22;;;;;;;22.78;43.62;96087.17;1753382;81;21130;-67
2022/05/10 10:06:26;;;;;;;2.67;2.40;;;;;;;22.29;43.36;96090.91;1752915;82;21003;-66
2022/05/10 10:08:58;;;;;;;2.20;2.10;;;;;;;22.06;43.72;96090.83;1753097;82;21058;-67
2022/05/10 10:11:32;;;;;;;4.78;2.27;;;;;;;21.79;42.36;96088.72;1753324;82;20991;-67
2022/05/10 10:14:06;;;;;;;3.50;2.30;;;;;;;21.36;43.99;96096.38;1753134;81;21509;-67
2022/05/10 10:16:50;;;;;;;2.72;1.90;;;;;;;20.94;44.76;96091.45;1752643;82;21027;-67
2022/05/10 10:19:38;;;;;;;2.37;2.17;;;;;;;20.51;44.28;96093.15;1753080;82;21023;-67
2022/05/10 10:22:14;;;;;;;4.67;2.70;;;;;;;20.18;44.66;96094.31;1753281;81;21038;-67
2022/05/10 10:24:53;;;;;;;3.47;2.17;;;;;;;19.90;45.77;96088.08;1752456;82;20995;-66
2022/05/10 10:28:15;;;;;;;3.75;2.37;;;;;;;19.52;48.25;96100.08;1753316;81;20979;-65
2022/05/10 10:30:47;;;;;;;3.92;2.58;;;;;;;19.34;49.24;96089.74;1753417;81;21069;-66
2022/05/10 10:33:37;;;;;;;3.33;2.70;;;;;;;19.89;52.54;96082.34;1753376;81;21523;-66
2022/05/10 10:36:13;;;;;;;3.55;2.47;;;;;;;20.48;52.78;96079.02;1753121;81;21019;-66
2022/05/10 10:39:03;;;;;;;3.42;2.50;;;;;;;21.05;50.93;96071.66;1753320;82;21006;-69
2022/05/10 10:41:57;;;;;;;4.62;2.30;;;;;;;21.60;51.39;96071.41;1752878;82;21010;-69
2022/05/10 10:44:29;;;;;;;;;;;;;;;22.22;50.55;96063.49;1755640;81;20987;-69
2022/05/10 10:47:42;;;;;;;5.78;2.40;;;;;;;22.44;47.25;96055.55;1752996;82;20102;-69
2022/05/10 10:50:23;;;;;;;2.50;2.30;;;;;;;22.19;46.48;96057.41;1753543;82;21018;-67
2022/05/10 10:52:54;;;;;;;3.50;2.58;;;;;;;21.82;47.00;96059.47;1753282;81;21047;-67
2022/05/10 10:55:25;;;;;;;4.90;2.33;;;;;;;21.57;47.85;96057.27;1752930;82;20999;-67
2022/05/10 10:58:23;;;;;;;6.17;2.10;;;;;;;21.30;46.80;96054.26;1749867;82;21375;-66
2022/05/10 11:01:20;;;;;;;4.35;2.20;;;;;;;20.89;45.78;96060.86;1753037;82;20995;-67
2022/05/10 11:04:21;;;;;;;2.60;2.37;;;;;;;20.43;46.94;96062.30;1753091;82;21055;-66
2022/05/10 11:06:55;;;;;;;4.45;2.30;;;;;;;20.04;48.15;96062.85;1753470;81;21034;-66
2022/05/10 11:09:44;;;;;;;4.87;2.52;;;;;;;19.51;45.87;96073.41;1753241;82;21126;-66
2022/05/10 11:12:54;;;;;;;5.22;2.37;;;;;;;19.04;46.78;96067.91;1753464;81;21043;-66
2022/05/10 11:15:41;;;;;;;3.15;1.67;;;;;;;18.71;47.69;96071.09;1754206;82;21034;-67
2022/05/10 11:19:01;;;;;;;1.80;1.70;;;;;;;18.27;48.32;96075.63;1758984;81;20982;-67
2022/05/10 11:22:12;;;;;;;1.92;1.72;;;;;;;18.09;52.49;96070.58;1758774;81;21030;-66
2022/05/10 11:25:07;;;;;;;1.95;1.80;;;;;;;17.97;52.79;96072.40;1757881;82;21660;-67
2022/05/10 11:28:05;;;;;;;2.08;1.87;;;;;;;17.88;53.26;96075.84;1758896;82;21468;-67
2022/05/10 11:31:18;;;;;;;4.08;1.37;;;;;;;17.86;53.81;96075.03;1757737;82;21038;-66
2022/05/10 11:34:22;;;;;;;1.82;1.40;;;;;;;17.95;53.15;96075.15;1730648;82;21489;-66
2022/05/10 11:36:51;;;;;;;1.50;1.32;;;;;;;18.01;52.99;96073.55;1758837;81;20987;-66
2022/05/10 11:39:53;;;;;;;1.98;1.35;;;;;;;17.99;51.73;96072.74;1758856;82;21038;-66
2022/05/10 11:42:46;;;;;;;1.90;1.50;;;;;;;18.21;52.22;96070.55;1758357;82;21041;-66
2022/05/10 11:45:39;;;;;;;3.17;1.70;;;;;;;18.82;54.78;96061.30;1757651;82;21015;-66
2022/05/10 11:48:21;;;;;;;1.87;1.67;;;;;;;19.89;54.25;96056.42;1757489;82;21039;-66
2022/05/10 11:51:38;;;;;;;3.00;1.80;;;;;;;21.03;49.15;96046.72;1758599;82;20999;-67
2022/05/10 11:54:26;;;;;;;2.65;2.00;;;;;;;21.88;49.26;96041.69;1759118;82;21014;-67
2022/05/10 11:56:56;;;;;;;5.80;1.80;;;;;;;22.77;45.17;96026.27;1758393;81;21002;-67
2022/05/10 11:59:31;;;;;;;3.22;1.90;;;;;;;23.51;44.03;96019.47;1756189;81;21029;-67
2022/05/10 12:02:00;;;;;;;3.35;2.00;;;;;;;24.13;40.69;96018.23;1758883;81;21496;-67
2022/05/10 12:04:45;;;;;;;6.30;1.90;;;;;;;24.71;38.58;96006.75;1758613;82;21022;-67
2022/05/10 12:07:26;;;;;;;6.47;2.02;;;;;;;25.16;38.14;96002.73;1758813;81;21007;-67
2022/05/10 12:09:58;;;;;;;2.75;2.22;;;;;;;25.64;35.88;96000.71;1758873;81;21476;-67
2022/05/10 12:12:39;;;;;;;3.17;2.10;;;;;;;25.98;35.42;95995.56;1758946;82;21086;-67
2022/05/10 12:21:24;;;;;;;2.17;1.90;;;;;;;26.08;33.68;95987.15;1758909;81;21445;-67
2022/05/10 12:24:27;;;;;;;2.98;2.08;;;;;;;26.34;34.52;95982.52;1759063;82;20975;-67
2022/05/10 12:27:15;;;;;;;5.83;3.42;;;;;;;26.46;32.86;95982.95;1758873;82;21035;-67
2022/05/10 12:29:48;;;;;;;7.00;3.27;;;;;;;26.04;32.73;96001.90;1758031;82;21058;-66
2022/05/10 12:32:43;;;;;;;9.05;3.67;;;;;;;25.04;35.80;96003.56;1758918;81;21038;-66